sensor_id;sensor_type;location;lat;lon;timestamp;temperature;humidity
11826;DHT22;5970;48.094;11.496;2022-11-20T14:30:47;7.90;98.40
11826;DHT22;5970;48.094;11.496;2022-11-20T14:33:14;7.80;98.20
11826;DHT22;5970;48.094;11.496;2022-11-20T14:35:44;9.80;98.90
11826;DHT22;5970;48.094;11.496;2022-11-20T14:38:13;7.80;98.10
11826;DHT22;5970;48.094;11.496;2022-11-20T14:40:40;7.70;98.00
11826;DHT22;5970;48.094;11.496;2022-11-20T14:45:45;7.40;97.90
11826;DHT22;5970;48.094;11.496;2022-11-20T14:48:12;7.30;98.10
11826;DHT22;5970;48.094;11.496;2022-11-20T14:50:39;7.40;98.10
11826;DHT22;5970;48.094;11.496;2022-11-20T14:53:06;7.40;97.90
11826;DHT22;5970;48.094;11.496;2022-11-20T14:55:33;7.30;97.60
11826;DHT22;5970;48.094;11.496;2022-11-20T14:58:01;7.20;97.40
11826;DHT22;5970;48.094;11.496;2022-11-20T15:00:29;7.20;97.50
11826;DHT22;5970;48.094;11.496;2022-11-20T15:02:56;7.40;97.60
11826;DHT22;5970;48.094;11.496;2022-11-20T15:05:24;7.20;97.90
11826;DHT22;5970;48.094;11.496;2022-11-20T15:08:03;7.30;98.00
11826;DHT22;5970;48.094;11.496;2022-11-20T15:10:30;7.40;98.10
11826;DHT22;5970;48.094;11.496;2022-11-20T15:12:59;7.50;98.20
11826;DHT22;5970;48.094;11.496;2022-11-20T15:15:35;7.20;97.90
11826;DHT22;5970;48.094;11.496;2022-11-20T15:18:03;7.30;98.00
11826;DHT22;5970;48.094;11.496;2022-11-20T15:20:31;7.30;97.80
11826;DHT22;5970;48.094;11.496;2022-11-20T15:22:58;7.10;97.70
11826;DHT22;5970;48.094;11.496;2022-11-20T15:25:24;8.80;98.70
11826;DHT22;5970;48.094;11.496;2022-11-20T15:27:52;7.30;97.90
11826;DHT22;5970;48.094;11.496;2022-11-20T15:30:20;8.90;98.50
11826;DHT22;5970;48.094;11.496;2022-11-20T15:32:47;7.30;98.00
11826;DHT22;5970;48.094;11.496;2022-11-20T15:35:14;7.20;98.10
11826;DHT22;5970;48.094;11.496;2022-11-20T15:37:41;7.20;97.90
11826;DHT22;5970;48.094;11.496;2022-11-20T15:40:08;7.20;98.10
11826;DHT22;5970;48.094;11.496;2022-11-20T15:42:35;7.20;98.10
11826;DHT22;5970;48.094;11.496;2022-11-20T15:45:03;8.80;98.90
11826;DHT22;5970;48.094;11.496;2022-11-20T15:47:30;7.20;98.20
11826;DHT22;5970;48.094;11.496;2022-11-20T15:49:57;7.10;98.20
11826;DHT22;5970;48.094;11.496;2022-11-20T15:52:24;9.20;99.20
11826;DHT22;5970;48.094;11.496;2022-11-20T15:54:51;7.20;98.40
11826;DHT22;5970;48.094;11.496;2022-11-20T15:57:18;6.90;98.40
11826;DHT22;5970;48.094;11.496;2022-11-20T15:59:44;6.80;98.60
11826;DHT22;5970;48.094;11.496;2022-11-20T16:02:11;6.70;98.70
11826;DHT22;5970;48.094;11.496;2022-11-20T16:04:44;6.70;98.90
11826;DHT22;5970;48.094;11.496;2022-11-20T16:07:11;6.60;98.90
11826;DHT22;5970;48.094;11.496;2022-11-20T16:09:38;6.60;99.00
11826;DHT22;5970;48.094;11.496;2022-11-20T16:12:04;6.60;99.10
11826;DHT22;5970;48.094;11.496;2022-11-20T16:14:31;6.40;99.20
11826;DHT22;5970;48.094;11.496;2022-11-20T16:17:16;8.80;99.90
11826;DHT22;5970;48.094;11.496;2022-11-20T16:20:03;6.60;99.60
11826;DHT22;5970;48.094;11.496;2022-11-20T16:22:30;6.30;99.60
11826;DHT22;5970;48.094;11.496;2022-11-20T16:24:56;6.30;99.50
11826;DHT22;5970;48.094;11.496;2022-11-20T16:27:23;7.70;99.90
11826;DHT22;5970;48.094;11.496;2022-11-20T16:29:50;6.20;99.90
11826;DHT22;5970;48.094;11.496;2022-11-20T16:32:16;8.50;99.90
11826;DHT22;5970;48.094;11.496;2022-11-20T16:34:43;6.20;99.90
11826;DHT22;5970;48.094;11.496;2022-11-20T16:37:09;6.20;99.80
11826;DHT22;5970;48.094;11.496;2022-11-20T16:39:36;7.20;99.90
11826;DHT22;5970;48.094;11.496;2022-11-20T16:42:03;8.60;99.90
11826;DHT22;5970;48.094;11.496;2022-11-20T16:44:30;5.90;99.90
11826;DHT22;5970;48.094;11.496;2022-11-20T16:46:56;5.90;99.90
11826;DHT22;5970;48.094;11.496;2022-11-20T16:51:51;5.80;99.90
11826;DHT22;5970;48.094;11.496;2022-11-20T16:54:18;5.60;99.90
11826;DHT22;5970;48.094;11.496;2022-11-20T16:56:46;5.50;99.90
11826;DHT22;5970;48.094;11.496;2022-11-20T16:59:13;5.40;99.90
11826;DHT22;5970;48.094;11.496;2022-11-20T17:01:40;5.30;99.90
11826;DHT22;5970;48.094;11.496;2022-11-20T17:04:08;5.40;99.90
11826;DHT22;5970;48.094;11.496;2022-11-20T17:06:36;5.60;99.90
11826;DHT22;5970;48.094;11.496;2022-11-20T17:09:03;5.10;99.90
11826;DHT22;5970;48.094;11.496;2022-11-20T17:11:30;5.10;99.90
11826;DHT22;5970;48.094;11.496;2022-11-20T17:13:58;4.90;99.90
11826;DHT22;5970;48.094;11.496;2022-11-20T17:16:26;4.90;99.90
11826;DHT22;5970;48.094;11.496;2022-11-20T17:18:56;4.80;99.90
11826;DHT22;5970;48.094;11.496;2022-11-20T17:21:29;4.70;99.90
11826;DHT22;5970;48.094;11.496;2022-11-20T17:23:58;4.00;99.90
11826;DHT22;5970;48.094;11.496;2022-11-20T17:26:25;4.50;99.90
11826;DHT22;5970;48.094;11.496;2022-11-20T17:28:57;4.40;99.90
11826;DHT22;5970;48.094;11.496;2022-11-20T17:31:25;4.40;99.90
11826;DHT22;5970;48.094;11.496;2022-11-20T17:33:52;4.40;99.90
11826;DHT22;5970;48.094;11.496;2022-11-20T17:36:19;6.80;99.90
11826;DHT22;5970;48.094;11.496;2022-11-20T17:38:46;4.20;99.90
11826;DHT22;5970;48.094;11.496;2022-11-20T17:41:14;4.20;99.90
11826;DHT22;5970;48.094;11.496;2022-11-20T17:43:41;4.10;99.90
11826;DHT22;5970;48.094;11.496;2022-11-20T17:46:09;4.20;99.90
11826;DHT22;5970;48.094;11.496;2022-11-20T17:48:36;4.10;99.90
11826;DHT22;5970;48.094;11.496;2022-11-20T17:51:04;4.10;99.90
11826;DHT22;5970;48.094;11.496;2022-11-20T17:53:32;4.00;99.90
11826;DHT22;5970;48.094;11.496;2022-11-20T17:55:59;7.80;99.90
11826;DHT22;5970;48.094;11.496;2022-11-20T17:58:44;4.00;99.90
11826;DHT22;5970;48.094;11.496;2022-11-20T18:01:11;4.50;99.90
11826;DHT22;5970;48.094;11.496;2022-11-20T18:03:38;3.90;99.90
11826;DHT22;5970;48.094;11.496;2022-11-20T18:06:14;3.90;99.90
11826;DHT22;5970;48.094;11.496;2022-11-20T18:08:41;3.90;99.90
11826;DHT22;5970;48.094;11.496;2022-11-20T18:11:09;3.90;99.90
11826;DHT22;5970;48.094;11.496;2022-11-20T18:13:36;3.90;99.90
11826;DHT22;5970;48.094;11.496;2022-11-20T18:16:36;3.90;99.90
11826;DHT22;5970;48.094;11.496;2022-11-20T18:19:04;3.90;99.90
11826;DHT22;5970;48.094;11.496;2022-11-20T18:21:30;4.00;99.90
11826;DHT22;5970;48.094;11.496;2022-11-20T18:23:57;4.00;99.90
11826;DHT22;5970;48.094;11.496;2022-11-20T18:26:24;4.00;99.90
11826;DHT22;5970;48.094;11.496;2022-11-20T18:28:51;4.10;99.90
11826;DHT22;5970;48.094;11.496;2022-11-20T18:31:18;4.20;99.90
11826;DHT22;5970;48.094;11.496;2022-11-20T18:33:45;4.20;99.90
11826;DHT22;5970;48.094;11.496;2022-11-20T18:36:12;4.20;99.90
11826;DHT22;5970;48.094;11.496;2022-11-20T18:38:40;4.20;99.90
11826;DHT22;5970;48.094;11.496;2022-11-20T18:41:08;4.30;99.90
11826;DHT22;5970;48.094;11.496;2022-11-20T18:43:55;4.30;99.90
11826;DHT22;5970;48.094;11.496;2022-11-20T18:46:41;6.60;99.90
11826;DHT22;5970;48.094;11.496;2022-11-20T18:49:08;4.30;99.90
11826;DHT22;5970;48.094;11.496;2022-11-20T18:51:35;4.30;99.90
11826;DHT22;5970;48.094;11.496;2022-11-20T18:54:02;4.40;99.90
11826;DHT22;5970;48.094;11.496;2022-11-20T18:56:29;4.40;99.90
11826;DHT22;5970;48.094;11.496;2022-11-20T18:59:02;4.30;99.90
11826;DHT22;5970;48.094;11.496;2022-11-20T19:01:29;4.30;99.90
11826;DHT22;5970;48.094;11.496;2022-11-20T19:03:56;4.20;99.90
11826;DHT22;5970;48.094;11.496;2022-11-20T19:06:23;4.10;99.90
11826;DHT22;5970;48.094;11.496;2022-11-20T19:08:51;4.00;99.90
11826;DHT22;5970;48.094;11.496;2022-11-20T19:11:18;4.10;99.90
11826;DHT22;5970;48.094;11.496;2022-11-20T19:13:45;4.00;99.90
11826;DHT22;5970;48.094;11.496;2022-11-20T19:16:16;4.00;99.90
11826;DHT22;5970;48.094;11.496;2022-11-20T19:18:47;4.00;99.90
11826;DHT22;5970;48.094;11.496;2022-11-20T19:23:41;3.90;99.90
11826;DHT22;5970;48.094;11.496;2022-11-20T19:26:07;3.90;99.90
11826;DHT22;5970;48.094;11.496;2022-11-20T19:28:36;3.90;99.90
11826;DHT22;5970;48.094;11.496;2022-11-20T19:31:10;7.00;99.90
11826;DHT22;5970;48.094;11.496;2022-11-20T19:33:37;5.50;99.90
11826;DHT22;5970;48.094;11.496;2022-11-20T19:36:17;3.90;99.90
11826;DHT22;5970;48.094;11.496;2022-11-20T19:38:45;4.00;99.90
11826;DHT22;5970;48.094;11.496;2022-11-20T19:41:16;3.90;99.90
11826;DHT22;5970;48.094;11.496;2022-11-20T19:43:45;3.90;99.90
11826;DHT22;5970;48.094;11.496;2022-11-20T19:46:18;3.90;99.90
11826;DHT22;5970;48.094;11.496;2022-11-20T19:48:46;4.00;99.90
11826;DHT22;5970;48.094;11.496;2022-11-20T19:51:14;3.90;99.90
11826;DHT22;5970;48.094;11.496;2022-11-20T19:53:41;3.80;99.90
11826;DHT22;5970;48.094;11.496;2022-11-20T19:56:08;4.00;99.90
11826;DHT22;5970;48.094;11.496;2022-11-20T19:58:35;4.10;99.90
11826;DHT22;5970;48.094;11.496;2022-11-20T20:03:36;4.20;99.90
11826;DHT22;5970;48.094;11.496;2022-11-20T20:06:04;8.20;99.90
11826;DHT22;5970;48.094;11.496;2022-11-20T20:08:31;4.30;99.90
11826;DHT22;5970;48.094;11.496;2022-11-20T20:10:58;4.30;99.90
11826;DHT22;5970;48.094;11.496;2022-11-20T20:13:25;4.30;99.90
11826;DHT22;5970;48.094;11.496;2022-11-20T20:15:52;4.40;99.90
11826;DHT22;5970;48.094;11.496;2022-11-20T20:18:18;4.50;99.90
11826;DHT22;5970;48.094;11.496;2022-11-20T20:20:45;4.50;99.90
11826;DHT22;5970;48.094;11.496;2022-11-20T20:23:12;4.50;99.90
11826;DHT22;5970;48.094;11.496;2022-11-20T20:25:38;4.50;99.90
11826;DHT22;5970;48.094;11.496;2022-11-20T20:28:05;4.50;99.90
11826;DHT22;5970;48.094;11.496;2022-11-20T20:30:33;4.70;99.90
11826;DHT22;5970;48.094;11.496;2022-11-20T20:33:00;4.70;99.90
11826;DHT22;5970;48.094;11.496;2022-11-20T20:35:27;4.70;99.90
11826;DHT22;5970;48.094;11.496;2022-11-20T20:37:54;4.70;99.90
11826;DHT22;5970;48.094;11.496;2022-11-20T20:40:20;4.80;99.90
11826;DHT22;5970;48.094;11.496;2022-11-20T20:42:47;4.80;99.90
11826;DHT22;5970;48.094;11.496;2022-11-20T20:45:14;4.90;99.90
11826;DHT22;5970;48.094;11.496;2022-11-20T20:47:40;4.90;99.90
11826;DHT22;5970;48.094;11.496;2022-11-20T20:50:08;5.00;99.90
11826;DHT22;5970;48.094;11.496;2022-11-20T20:52:35;5.00;99.90
11826;DHT22;5970;48.094;11.496;2022-11-20T20:55:03;5.20;99.90
11826;DHT22;5970;48.094;11.496;2022-11-20T20:57:29;5.20;99.90
11826;DHT22;5970;48.094;11.496;2022-11-20T20:59:56;5.20;99.90
11826;DHT22;5970;48.094;11.496;2022-11-20T21:02:23;5.20;99.90
11826;DHT22;5970;48.094;11.496;2022-11-20T21:04:50;5.30;99.90
11826;DHT22;5970;48.094;11.496;2022-11-20T21:07:17;5.30;99.90
11826;DHT22;5970;48.094;11.496;2022-11-20T21:09:44;7.20;99.90
11826;DHT22;5970;48.094;11.496;2022-11-20T21:12:10;7.00;99.90
11826;DHT22;5970;48.094;11.496;2022-11-20T21:14:37;5.60;99.80
11826;DHT22;5970;48.094;11.496;2022-11-20T21:17:04;5.60;99.50
11826;DHT22;5970;48.094;11.496;2022-11-20T21:19:30;6.80;99.60
11826;DHT22;5970;48.094;11.496;2022-11-20T21:21:57;5.70;98.90
11826;DHT22;5970;48.094;11.496;2022-11-20T21:24:27;5.70;98.70
11826;DHT22;5970;48.094;11.496;2022-11-20T21:26:55;5.80;98.70
11826;DHT22;5970;48.094;11.496;2022-11-20T21:29:22;5.80;98.60
11826;DHT22;5970;48.094;11.496;2022-11-20T21:31:49;5.90;98.40
11826;DHT22;5970;48.094;11.496;2022-11-20T21:34:16;5.90;98.20
11826;DHT22;5970;48.094;11.496;2022-11-20T21:36:43;5.90;98.10
11826;DHT22;5970;48.094;11.496;2022-11-20T21:39:10;8.90;99.20
11826;DHT22;5970;48.094;11.496;2022-11-20T21:41:37;8.40;98.90
11826;DHT22;5970;48.094;11.496;2022-11-20T21:44:04;6.30;97.90
11826;DHT22;5970;48.094;11.496;2022-11-20T21:46:51;6.00;97.90
11826;DHT22;5970;48.094;11.496;2022-11-20T21:49:17;5.90;99.30
11826;DHT22;5970;48.094;11.496;2022-11-20T21:51:44;9.00;99.90
11826;DHT22;5970;48.094;11.496;2022-11-20T21:54:11;5.70;99.90
11826;DHT22;5970;48.094;11.496;2022-11-20T21:56:37;5.60;99.90
11826;DHT22;5970;48.094;11.496;2022-11-20T21:59:04;5.50;99.90
11826;DHT22;5970;48.094;11.496;2022-11-20T22:01:31;5.30;99.90
11826;DHT22;5970;48.094;11.496;2022-11-20T22:03:58;5.20;99.90
11826;DHT22;5970;48.094;11.496;2022-11-20T22:06:28;5.10;99.90
11826;DHT22;5970;48.094;11.496;2022-11-20T22:08:55;7.50;99.90
11826;DHT22;5970;48.094;11.496;2022-11-20T22:11:21;4.90;99.90
11826;DHT22;5970;48.094;11.496;2022-11-20T22:13:48;4.90;99.90
11826;DHT22;5970;48.094;11.496;2022-11-20T22:16:34;5.00;99.90
11826;DHT22;5970;48.094;11.496;2022-11-20T22:19:01;4.90;99.90
11826;DHT22;5970;48.094;11.496;2022-11-20T22:21:28;4.90;99.90
11826;DHT22;5970;48.094;11.496;2022-11-20T22:23:56;7.00;99.90
11826;DHT22;5970;48.094;11.496;2022-11-20T22:26:24;4.80;99.90
11826;DHT22;5970;48.094;11.496;2022-11-20T22:28:52;6.70;99.90
11826;DHT22;5970;48.094;11.496;2022-11-20T22:31:19;4.70;99.90
11826;DHT22;5970;48.094;11.496;2022-11-20T22:33:46;4.70;99.90
11826;DHT22;5970;48.094;11.496;2022-11-20T22:36:14;4.70;99.90
11826;DHT22;5970;48.094;11.496;2022-11-20T22:38:41;4.80;99.90
11826;DHT22;5970;48.094;11.496;2022-11-20T22:41:12;4.70;99.90
11826;DHT22;5970;48.094;11.496;2022-11-20T22:43:39;4.80;99.90
11826;DHT22;5970;48.094;11.496;2022-11-20T22:46:07;5.80;99.90
11826;DHT22;5970;48.094;11.496;2022-11-20T22:48:35;4.70;99.90
11826;DHT22;5970;48.094;11.496;2022-11-20T22:51:06;7.90;99.90
11826;DHT22;5970;48.094;11.496;2022-11-20T22:53:33;4.50;99.90
11826;DHT22;5970;48.094;11.496;2022-11-20T22:56:00;6.80;99.90
11826;DHT22;5970;48.094;11.496;2022-11-20T22:58:27;4.50;99.90
11826;DHT22;5970;48.094;11.496;2022-11-20T23:00:54;6.90;99.90
11826;DHT22;5970;48.094;11.496;2022-11-20T23:03:21;8.00;99.90
11826;DHT22;5970;48.094;11.496;2022-11-20T23:05:48;4.30;99.90
11826;DHT22;5970;48.094;11.496;2022-11-20T23:08:15;6.20;99.90
11826;DHT22;5970;48.094;11.496;2022-11-20T23:10:41;4.30;99.90
11826;DHT22;5970;48.094;11.496;2022-11-20T23:13:08;4.30;99.90
11826;DHT22;5970;48.094;11.496;2022-11-20T23:15:35;4.30;99.90
11826;DHT22;5970;48.094;11.496;2022-11-20T23:18:01;4.30;99.90
11826;DHT22;5970;48.094;11.496;2022-11-20T23:20:28;4.30;99.90
11826;DHT22;5970;48.094;11.496;2022-11-20T23:22:55;6.10;99.90
11826;DHT22;5970;48.094;11.496;2022-11-20T23:25:22;4.30;99.90
11826;DHT22;5970;48.094;11.496;2022-11-20T23:27:48;4.30;99.90
11826;DHT22;5970;48.094;11.496;2022-11-20T23:30:15;7.10;99.90
11826;DHT22;5970;48.094;11.496;2022-11-20T23:32:41;4.20;99.90
11826;DHT22;5970;48.094;11.496;2022-11-20T23:35:08;4.20;99.90
11826;DHT22;5970;48.094;11.496;2022-11-20T23:37:35;4.10;99.90
11826;DHT22;5970;48.094;11.496;2022-11-20T23:40:01;4.10;99.90
11826;DHT22;5970;48.094;11.496;2022-11-20T23:42:28;4.20;99.90
11826;DHT22;5970;48.094;11.496;2022-11-20T23:44:55;4.20;99.90
11826;DHT22;5970;48.094;11.496;2022-11-20T23:47:21;4.10;99.90
11826;DHT22;5970;48.094;11.496;2022-11-20T23:49:48;5.60;99.90
11826;DHT22;5970;48.094;11.496;2022-11-20T23:52:15;4.00;99.90
11826;DHT22;5970;48.094;11.496;2022-11-20T23:54:41;4.10;99.90
11826;DHT22;5970;48.094;11.496;2022-11-20T23:57:08;4.10;99.90
11826;DHT22;5970;48.094;11.496;2022-11-20T23:59:35;4.10;99.90
